Time;durP1;ratioP1;P1;durP2;ratioP2;P2;SDS_P1;SDS_P2;PMS_P1;PMS_P2;Temp;Humidity;BMP_temperature;BMP_pressure;BME280_temperature;BME280_humidity;BME280_pressure;Samples;Min_cycle;Max_cycle;Signal;HPM_P1;HPM_P2
2023/04/29 00:00:28;;;;;;;46.45;21.25;;;;;;;8.52;90.79;101780.69;6040808;19;20014;-69
2023/04/29 00:02:34;;;;;;;47.22;23.55;;;;;;;8.51;91.21;101785.06;6038263;19;20527;-68
2023/04/29 00:04:40;;;;;;;42.28;21.52;;;;;;;8.50;90.51;101777.22;6035045;19;20515;-68
2023/04/29 00:06:51;;;;;;;51.90;22.52;;;;;;;8.49;90.64;101791.22;6038149;19;20535;-69
2023/04/29 00:08:56;;;;;;;53.08;22.70;;;;;;;8.49;90.64;101788.59;6042242;19;20543;-72
2023/04/29 00:11:01;;;;;;;55.03;23.17;;;;;;;8.49;90.86;101789.47;6045133;19;20458;-72
2023/04/29 00:13:07;;;;;;;43.55;21.58;;;;;;;8.49;89.84;101792.06;6038704;19;20026;-71
2023/04/29 00:15:13;;;;;;;49.42;20.90;;;;;;;8.47;89.88;101787.75;6036678;19;20415;-71
2023/04/29 00:17:19;;;;;;;42.53;21.13;;;;;;;8.44;89.77;101793.03;6037215;19;20378;-72
2023/04/29 00:19:24;;;;;;;43.67;23.00;;;;;;;8.42;90.11;101784.34;6036387;19;20277;-71
2023/04/29 00:21:29;;;;;;;41.67;21.00;;;;;;;8.42;89.41;101794.81;6037731;19;20332;-71
2023/04/29 00:23:37;;;;;;;56.55;24.25;;;;;;;8.36;89.66;101794.00;6044782;19;20324;-72
2023/04/29 00:25:43;;;;;;;53.83;23.67;;;;;;;8.35;89.71;101794.91;6038710;19;20280;-71
2023/04/29 00:27:48;;;;;;;45.78;22.65;;;;;;;8.31;89.63;101798.44;6038096;19;20477;-72
2023/04/29 00:29:53;;;;;;;52.33;24.27;;;;;;;8.36;89.88;101801.84;6039378;19;20412;-72
2023/04/29 00:31:58;;;;;;;49.55;22.10;;;;;;;8.32;89.63;101804.53;6038765;19;20022;-72
2023/04/29 00:34:04;;;;;;;48.85;20.80;;;;;;;8.28;89.60;101806.34;6041698;19;20505;-71
2023/04/29 00:36:09;;;;;;;44.95;22.85;;;;;;;8.27;89.60;101802.00;6042313;19;20313;-72
2023/04/29 00:38:15;;;;;;;45.00;22.30;;;;;;;8.29;89.77;101809.81;6038411;19;20007;-71
2023/04/29 00:40:23;;;;;;;48.85;23.58;;;;;;;8.30;89.73;101811.56;6042868;19;20237;-72
2023/04/29 00:42:29;;;;;;;51.03;23.75;;;;;;;8.24;89.91;101812.53;6039821;19;20011;-72
2023/04/29 00:44:34;;;;;;;48.20;22.63;;;;;;;8.19;89.57;101819.59;6038398;19;20645;-73
2023/04/29 00:46:41;;;;;;;49.70;23.63;;;;;;;8.19;89.65;101816.09;6037969;19;20011;-71
2023/04/29 00:48:47;;;;;;;47.28;23.35;;;;;;;8.19;89.92;101808.22;6044627;19;20258;-67
2023/04/29 00:50:52;;;;;;;45.78;22.30;;;;;;;8.20;90.36;101810.84;6038716;19;20336;-67
2023/04/29 00:52:58;;;;;;;56.90;24.65;;;;;;;8.18;90.46;101816.97;6039178;19;20421;-66
2023/04/29 00:55:04;;;;;;;49.85;22.73;;;;;;;8.18;90.41;101822.22;6039843;19;20021;-66
2023/04/29 00:57:12;;;;;;;42.42;22.10;;;;;;;8.16;90.43;101827.47;6042012;19;20605;-68
2023/04/29 00:59:20;;;;;;;50.47;24.42;;;;;;;8.18;90.97;101827.47;6040578;19;20520;-67
2023/04/29 01:01:26;;;;;;;51.72;25.35;;;;;;;8.14;91.05;101830.13;6039927;19;20758;-66
2023/04/29 01:03:31;;;;;;;53.10;22.92;;;;;;;8.14;91.03;101826.66;6045059;19;20628;-67
2023/04/29 01:05:37;;;;;;;48.67;22.67;;;;;;;8.15;91.27;101830.97;6044955;19;20018;-67
2023/04/29 01:07:54;;;;;;;59.25;26.88;;;;;;;8.14;90.97;101834.50;6041447;19;20627;-67
2023/04/29 01:10:05;;;;;;;52.97;23.38;;;;;;;8.16;91.22;101835.31;6045452;19;20007;-67
2023/04/29 01:12:22;;;;;;;50.33;23.60;;;;;;;8.14;91.00;101842.34;6048060;19;20044;-66
2023/04/29 01:14:30;;;;;;;50.92;22.00;;;;;;;8.14;90.93;101839.75;6040566;19;20534;-69
2023/04/29 01:16:42;;;;;;;43.88;21.25;;;;;;;8.11;91.04;101837.16;6043657;19;20474;-67
2023/04/29 01:18:52;;;;;;;50.95;23.23;;;;;;;8.09;90.84;101834.56;6042577;19;20013;-66
2023/04/29 01:20:59;;;;;;;47.88;22.05;;;;;;;8.10;91.02;101841.50;6043877;19;20456;-67
2023/04/29 01:23:04;;;;;;;46.45;21.95;;;;;;;8.11;91.09;101839.78;6044034;19;20072;-68
2023/04/29 01:25:12;;;;;;;43.03;20.27;;;;;;;8.11;91.02;101838.03;6046346;19;20443;-68
2023/04/29 01:27:29;;;;;;;44.20;22.70;;;;;;;8.10;91.22;101836.28;6047596;19;20093;-66
2023/04/29 01:29:42;;;;;;;46.85;21.98;;;;;;;8.14;91.24;101837.97;6045462;19;20561;-69
2023/04/29 01:32:00;;;;;;;53.65;26.13;;;;;;;8.11;91.07;101843.25;6049696;19;20213;-68
2023/04/29 01:34:11;;;;;;;55.47;23.75;;;;;;;8.11;91.18;101852.88;6049531;19;20600;-67
2023/04/29 01:36:27;;;;;;;56.38;25.48;;;;;;;8.12;90.93;101850.22;6056169;19;20045;-66
2023/04/29 01:38:38;;;;;;;53.58;24.05;;;;;;;8.12;91.18;101850.22;6048827;19;20313;-71
2023/04/29 01:40:55;;;;;;;54.08;24.70;;;;;;;8.11;91.13;101848.50;6048790;19;20015;-70
2023/04/29 01:43:04;;;;;;;48.42;24.20;;;;;;;8.10;91.14;101849.38;6048481;19;20373;-72
2023/04/29 01:45:12;;;;;;;51.55;23.10;;;;;;;8.16;91.17;101844.94;6048319;19;20129;-73
2023/04/29 01:47:20;;;;;;;52.03;24.38;;;;;;;8.14;91.05;101848.44;6046610;19;20795;-71
2023/04/29 01:49:26;;;;;;;49.10;23.23;;;;;;;8.12;91.06;101851.97;6049532;19;20025;-72
2023/04/29 01:51:32;;;;;;;52.80;24.42;;;;;;;8.16;91.13;101853.66;6047168;19;20007;-71
2023/04/29 01:53:39;;;;;;;53.25;24.60;;;;;;;8.17;91.27;101855.41;6045154;19;20292;-72
2023/04/29 01:55:47;;;;;;;53.85;24.95;;;;;;;8.17;91.13;101851.91;6051781;19;20052;-71
2023/04/29 01:57:53;;;;;;;51.50;24.40;;;;;;;8.18;91.36;101851.03;6054899;19;20052;-72
2023/04/29 02:00:01;;;;;;;46.50;23.60;;;;;;;8.20;91.34;101852.72;6051985;19;20002;-72
2023/04/29 02:02:09;;;;;;;60.55;24.95;;;;;;;8.18;91.37;101851.88;6051600;19;20464;-71
2023/04/29 02:04:14;;;;;;;51.80;23.60;;;;;;;8.22;91.51;101858.81;6047609;19;20340;-70
2023/04/29 02:06:19;;;;;;;49.55;22.88;;;;;;;8.24;91.13;101858.78;6046287;19;20014;-72
2023/04/29 02:08:24;;;;;;;47.78;23.00;;;;;;;8.25;91.55;101856.16;6045257;19;20020;-71
2023/04/29 02:10:29;;;;;;;55.92;24.13;;;;;;;8.23;91.31;101865.78;6049005;19;20007;-72
2023/04/29 02:12:37;;;;;;;47.15;23.85;;;;;;;8.26;91.33;101865.72;6044795;19;20100;-71
2023/04/29 02:14:42;;;;;;;53.03;23.85;;;;;;;8.26;91.59;101863.09;6047145;19;20003;-73
2023/04/29 02:16:47;;;;;;;49.85;22.02;;;;;;;8.28;91.54;101870.94;6047041;19;20281;-72
2023/04/29 02:18:56;;;;;;;46.63;22.90;;;;;;;8.29;91.86;101865.72;6042532;19;20281;-72
2023/04/29 02:21:02;;;;;;;43.58;23.30;;;;;;;8.32;91.62;101873.50;6040988;19;20011;-73
2023/04/29 02:23:08;;;;;;;50.03;22.45;;;;;;;8.31;91.26;101874.38;6042564;19;20548;-73
2023/04/29 02:25:13;;;;;;;53.72;23.77;;;;;;;8.32;91.45;101870.91;6041710;19;20534;-72
2023/04/29 02:27:18;;;;;;;43.03;21.55;;;;;;;8.36;91.27;101882.19;6042375;19;20355;-72
2023/04/29 02:29:28;;;;;;;46.80;21.13;;;;;;;8.39;90.98;101883.88;6043724;19;20320;-73
2023/04/29 02:31:34;;;;;;;46.65;21.58;;;;;;;8.39;90.69;101876.03;6041806;19;20284;-73
2023/04/29 02:33:41;;;;;;;48.45;22.83;;;;;;;8.42;90.75;101874.25;6044828;19;20472;-73
2023/04/29 02:35:46;;;;;;;50.58;20.92;;;;;;;8.41;90.66;101884.78;6045603;19;20303;-72
2023/04/29 02:37:53;;;;;;;41.72;19.10;;;;;;;8.43;90.49;101893.47;6048093;19;20565;-72
2023/04/29 02:39:58;;;;;;;39.80;19.13;;;;;;;8.40;89.92;101890.88;6045876;19;20297;-72
2023/04/29 02:42:04;;;;;;;45.17;20.92;;;;;;;8.40;89.81;101896.13;6043610;19;20420;-72
2023/04/29 02:44:09;;;;;;;43.17;19.58;;;;;;;8.46;89.55;101898.66;6054095;19;20199;-73
2023/04/29 02:46:19;;;;;;;53.10;21.33;;;;;;;8.44;89.67;101903.06;6043723;19;20015;-72
2023/04/29 02:48:26;;;;;;;46.17;20.77;;;;;;;8.45;89.45;101899.53;6036405;19;20437;-73
2023/04/29 02:50:31;;;;;;;44.53;20.00;;;;;;;8.44;89.51;101903.06;6041427;19;20197;-72
2023/04/29 02:52:38;;;;;;;42.55;18.48;;;;;;;8.44;89.48;101903.91;6041103;19;20007;-72
2023/04/29 02:54:43;;;;;;;45.05;20.58;;;;;;;8.46;89.17;101901.28;6047692;19;20006;-71
2023/04/29 02:56:48;;;;;;;45.92;19.80;;;;;;;8.46;89.50;101906.53;6043893;19;20626;-72
2023/04/29 02:58:53;;;;;;;44.58;18.27;;;;;;;8.47;89.08;101906.50;6039265;19;20490;-72
2023/04/29 03:00:58;;;;;;;41.30;18.80;;;;;;;8.48;88.30;101910.00;6038328;19;20611;-73
2023/04/29 03:03:07;;;;;;;38.75;17.42;;;;;;;8.52;87.90;101916.91;6043704;19;20413;-72
2023/04/29 03:05:12;;;;;;;35.15;18.08;;;;;;;8.51;88.14;101925.66;6040769;19;20359;-72
2023/04/29 03:07:18;;;;;;;38.70;18.80;;;;;;;8.48;87.93;101923.09;6042739;19;20327;-72
2023/04/29 03:09:23;;;;;;;36.05;17.50;;;;;;;8.50;88.40;101918.69;6046212;19;20180;-73
2023/04/29 03:11:28;;;;;;;44.88;20.90;;;;;;;8.49;88.50;101919.56;6041452;19;20006;-71
2023/04/29 03:13:33;;;;;;;43.45;19.05;;;;;;;8.51;88.21;101923.03;6039424;19;20062;-71
2023/04/29 03:15:39;;;;;;;41.40;18.23;;;;;;;8.51;88.06;101916.03;6043163;19;20293;-68
2023/04/29 03:17:45;;;;;;;37.28;18.25;;;;;;;8.50;88.14;101923.91;6040539;19;20495;-68
2023/04/29 03:19:53;;;;;;;47.80;16.85;;;;;;;8.50;88.38;101924.78;6041496;19;20261;-67
2023/04/29 03:21:58;;;;;;;40.38;18.73;;;;;;;8.49;88.64;101922.19;6035829;19;20768;-69
2023/04/29 03:24:04;;;;;;;38.97;17.17;;;;;;;8.49;88.42;101930.06;6039821;19;20281;-67
2023/04/29 03:26:10;;;;;;;38.90;18.50;;;;;;;8.51;88.81;101925.66;6041334;19;20207;-67
2023/04/29 03:28:15;;;;;;;39.97;18.10;;;;;;;8.51;88.78;101936.16;6041353;19;20561;-67
2023/04/29 03:30:23;;;;;;;36.80;17.20;;;;;;;8.52;88.58;101930.00;6018797;19;20523;-67
2023/04/29 03:32:28;;;;;;;43.00;19.02;;;;;;;8.50;88.73;101923.91;6041770;19;20530;-66
2023/04/29 03:34:33;;;;;;;42.78;17.75;;;;;;;8.51;88.80;101931.75;6048303;19;20604;-66
2023/04/29 03:36:42;;;;;;;38.85;19.45;;;;;;;8.53;88.20;101930.00;6040780;19;20163;-66
2023/04/29 03:38:47;;;;;;;38.65;18.02;;;;;;;8.53;88.45;101930.00;6040081;19;20176;-67
2023/04/29 03:40:52;;;;;;;41.78;19.17;;;;;;;8.54;88.25;101931.72;6040014;19;20210;-67
2023/04/29 03:42:57;;;;;;;39.15;17.98;;;;;;;8.54;88.12;101934.34;6036081;19;20364;-67
2023/04/29 03:45:02;;;;;;;36.50;18.35;;;;;;;8.55;88.38;101936.06;6041812;19;20292;-67
2023/04/29 03:47:08;;;;;;;31.35;15.98;;;;;;;8.56;88.41;101934.31;6040686;19;20359;-67
2023/04/29 03:49:13;;;;;;;32.70;17.58;;;;;;;8.57;88.55;101943.91;6040809;19;20370;-67
2023/04/29 03:51:18;;;;;;;40.25;18.48;;;;;;;8.58;88.07;101943.00;6040351;19;20011;-67
2023/04/29 03:53:26;;;;;;;33.35;16.55;;;;;;;8.60;88.59;101945.63;6035227;19;20270;-69
2023/04/29 03:55:31;;;;;;;38.08;17.08;;;;;;;8.62;87.71;101943.84;6038596;19;20019;-68
2023/04/29 03:57:39;;;;;;;35.78;17.63;;;;;;;8.61;88.27;101943.00;6039360;19;20292;-67
2023/04/29 03:59:49;;;;;;;39.38;18.38;;;;;;;8.60;88.44;101954.34;6039240;19;20280;-68
2023/04/29 04:01:54;;;;;;;36.78;17.45;;;;;;;8.61;88.05;101953.47;6038898;19;20272;-67
2023/04/29 04:03:59;;;;;;;39.67;17.33;;;;;;;8.61;87.99;101945.59;6035516;19;20015;-67
2023/04/29 04:06:05;;;;;;;38.22;18.05;;;;;;;8.63;88.11;101946.44;6044598;19;20007;-67
2023/04/29 04:08:10;;;;;;;36.75;17.52;;;;;;;8.63;88.16;101941.19;6045903;19;20611;-68
2023/04/29 04:10:18;;;;;;;40.33;18.30;;;;;;;8.62;88.14;101942.09;6041443;19;20021;-66
2023/04/29 04:12:23;;;;;;;38.33;18.17;;;;;;;8.61;87.89;101948.22;6036272;19;20321;-68
2023/04/29 04:14:28;;;;;;;36.55;17.30;;;;;;;8.62;88.11;101952.56;6036173;19;20367;-68
2023/04/29 04:16:33;;;;;;;32.35;15.77;;;;;;;8.66;88.51;101953.38;6037445;19;20017;-67
2023/04/29 04:18:38;;;;;;;44.28;18.73;;;;;;;8.64;88.34;101958.66;6041932;19;20273;-68
2023/04/29 04:20:43;;;;;;;35.90;17.45;;;;;;;8.66;88.09;101962.13;6045494;19;20516;-67
2023/04/29 04:22:48;;;;;;;36.90;17.50;;;;;;;8.67;88.01;101966.47;6043365;19;20491;-67
2023/04/29 04:24:53;;;;;;;37.35;16.70;;;;;;;8.68;88.49;101965.56;6042683;19;20269;-67
2023/04/29 04:27:01;;;;;;;37.28;16.77;;;;;;;8.69;88.44;101969.94;6049261;19;20544;-68
2023/04/29 04:29:07;;;;;;;43.50;19.08;;;;;;;8.68;88.78;101970.81;6047946;19;20231;-68
2023/04/29 04:31:13;;;;;;;41.30;18.90;;;;;;;8.73;88.58;101974.22;6048742;19;20507;-67
2023/04/29 04:33:18;;;;;;;36.42;17.52;;;;;;;8.73;88.71;101974.22;6055397;19;20399;-67
2023/04/29 04:35:23;;;;;;;36.75;15.93;;;;;;;8.73;88.85;101973.38;6045328;19;20011;-68
2023/04/29 04:37:28;;;;;;;41.03;16.15;;;;;;;8.82;88.82;101982.84;6047719;19;20019;-68
2023/04/29 04:39:34;;;;;;;37.05;16.92;;;;;;;8.74;89.21;101985.56;6051908;19;20090;-68
2023/04/29 04:41:40;;;;;;;33.53;18.08;;;;;;;8.73;89.22;101984.72;6050226;19;20186;-68
2023/04/29 04:43:50;;;;;;;42.45;18.13;;;;;;;8.74;89.19;101983.84;6054866;19;20246;-68
2023/04/29 04:45:56;;;;;;;38.45;16.88;;;;;;;8.77;89.13;101989.03;6054770;19;20002;-68
2023/04/29 04:48:01;;;;;;;40.60;18.38;;;;;;;8.79;89.23;101999.47;6055118;19;20553;-69
2023/04/29 04:50:07;;;;;;;35.38;18.63;;;;;;;8.77;89.47;101996.91;6056895;19;20102;-67
2023/04/29 04:52:13;;;;;;;38.72;17.13;;;;;;;8.77;89.33;102007.38;6055402;19;20372;-67
2023/04/29 04:54:18;;;;;;;40.53;18.17;;;;;;;8.81;89.37;102002.09;6036437;19;20402;-68
2023/04/29 04:56:23;;;;;;;39.47;19.35;;;;;;;8.76;89.54;102010.88;6051788;19;20036;-68
2023/04/29 04:58:30;;;;;;;43.55;19.33;;;;;;;8.79;89.31;102010.84;6062840;19;20304;-67
2023/04/29 05:00:37;;;;;;;37.92;19.30;;;;;;;8.82;89.39;102016.91;6052791;19;20519;-68
2023/04/29 05:02:43;;;;;;;38.38;17.42;;;;;;;8.83;89.35;102026.53;6051984;19;20737;-68
2023/04/29 05:04:48;;;;;;;42.78;18.75;;;;;;;8.86;89.39;102021.25;6050066;19;20250;-68
2023/04/29 05:06:53;;;;;;;41.92;17.88;;;;;;;8.85;89.41;102028.25;6051438;19;20400;-67
2023/04/29 05:08:58;;;;;;;46.40;20.10;;;;;;;8.86;89.60;102029.97;6049923;19;20505;-67
2023/04/29 05:11:04;;;;;;;37.03;18.50;;;;;;;8.86;89.76;102029.97;6051773;19;20304;-67
2023/04/29 05:13:09;;;;;;;41.15;18.40;;;;;;;8.86;89.84;102035.22;6047730;19;20511;-67
2023/04/29 05:15:15;;;;;;;42.03;17.77;;;;;;;8.85;89.73;102030.88;6046461;19;20532;-68
2023/04/29 05:17:25;;;;;;;44.08;18.55;;;;;;;8.87;89.93;102039.56;6044610;19;20527;-67
2023/04/29 05:19:30;;;;;;;44.08;19.25;;;;;;;8.90;89.87;102043.88;6051692;19;20972;-67
2023/04/29 05:21:35;;;;;;;40.58;19.25;;;;;;;8.90;90.22;102044.78;6051289;19;20017;-68
2023/04/29 05:23:42;;;;;;;46.90;20.23;;;;;;;8.92;90.19;102044.72;6048628;19;20471;-68
2023/04/29 05:25:47;;;;;;;44.60;18.38;;;;;;;8.95;90.66;102039.44;6044909;19;20214;-67
2023/04/29 05:27:52;;;;;;;44.70;18.48;;;;;;;9.02;90.29;102041.09;6046475;19;20007;-67
2023/04/29 05:29:57;;;;;;;46.85;19.50;;;;;;;8.99;90.23;102049.88;6048461;19;20058;-68
2023/04/29 05:32:02;;;;;;;45.08;19.67;;;;;;;9.07;90.23;102044.50;6044166;19;20010;-67
2023/04/29 05:34:10;;;;;;;48.03;20.23;;;;;;;9.03;90.52;102053.34;6046933;19;20022;-71
2023/04/29 05:36:15;;;;;;;44.75;18.88;;;;;;;9.11;90.32;102051.47;6041708;19;20048;-72
2023/04/29 05:38:27;;;;;;;53.15;21.98;;;;;;;9.05;90.23;102056.78;6041564;19;20204;-73
2023/04/29 05:40:32;;;;;;;45.95;20.58;;;;;;;9.13;90.17;102057.53;6047712;19;20170;-72
2023/04/29 05:42:38;;;;;;;52.40;20.33;;;;;;;9.14;90.30;102069.78;6045188;19;20329;-73
2023/04/29 05:44:43;;;;;;;45.17;20.60;;;;;;;9.22;89.78;102065.28;6042562;19;20291;-73
2023/04/29 05:46:50;;;;;;;45.45;20.33;;;;;;;9.21;89.87;102068.75;6040481;19;20426;-72
2023/04/29 05:48:55;;;;;;;49.60;20.38;;;;;;;9.29;89.53;102067.78;6044982;19;20229;-71
2023/04/29 05:51:05;;;;;;;47.45;20.60;;;;;;;9.23;89.77;102074.00;6042871;19;20089;-73
2023/04/29 05:53:10;;;;;;;41.25;19.27;;;;;;;9.25;89.48;102069.59;6044875;19;20014;-72
2023/04/29 05:55:15;;;;;;;49.15;21.70;;;;;;;9.25;89.13;102077.47;6045980;19;20196;-72
2023/04/29 05:57:20;;;;;;;40.83;18.85;;;;;;;9.26;88.74;102079.19;6040545;19;20339;-71
2023/04/29 05:59:28;;;;;;;43.90;19.48;;;;;;;9.28;87.98;102082.66;6043877;19;20055;-72
2023/04/29 06:01:33;;;;;;;38.67;19.23;;;;;;;9.33;87.74;102090.47;6043600;19;20025;-72
2023/04/29 06:03:38;;;;;;;40.97;19.35;;;;;;;9.27;86.93;102093.16;6044921;19;20007;-72
2023/04/29 06:05:44;;;;;;;37.03;16.65;;;;;;;9.31;87.35;102097.50;6044914;19;20310;-72
2023/04/29 06:07:52;;;;;;;41.63;20.05;;;;;;;9.35;86.71;102104.44;6043997;19;20394;-72
2023/04/29 06:09:58;;;;;;;39.10;18.75;;;;;;;9.39;86.95;102100.88;6047140;19;20010;-71
2023/04/29 06:12:04;;;;;;;39.45;17.95;;;;;;;9.45;86.64;102101.66;6051192;19;20128;-72
2023/04/29 06:14:09;;;;;;;43.00;17.60;;;;;;;9.39;85.68;102109.59;6044689;19;20293;-72
2023/04/29 06:16:14;;;;;;;45.00;20.25;;;;;;;9.34;85.58;102116.66;6042607;19;20278;-72
2023/04/29 06:18:21;;;;;;;43.10;17.30;;;;;;;9.48;85.69;102108.59;6037850;19;20638;-71
2023/04/29 06:20:26;;;;;;;37.55;18.35;;;;;;;9.49;85.90;102107.72;6046140;19;20363;-71
2023/04/29 06:22:31;;;;;;;37.67;16.70;;;;;;;9.53;84.97;102109.41;6042875;19;20264;-71
2023/04/29 06:24:39;;;;;;;44.28;17.92;;;;;;;9.51;84.72;102113.81;6046283;19;20015;-72
2023/04/29 06:26:45;;;;;;;40.90;17.75;;;;;;;9.55;84.08;102120.72;6043593;19;20360;-71
2023/04/29 06:28:53;;;;;;;33.88;15.38;;;;;;;9.57;83.27;102115.47;6048635;19;20439;-72
2023/04/29 06:30:59;;;;;;;36.72;17.45;;;;;;;9.68;83.12;102119.63;6045746;19;20456;-71
2023/04/29 06:33:04;;;;;;;33.15;15.38;;;;;;;9.88;83.48;102127.19;6043261;19;20645;-71
2023/04/29 06:35:10;;;;;;;32.03;15.88;;;;;;;9.91;81.94;102121.03;6046257;19;20198;-71
2023/04/29 06:37:15;;;;;;;28.38;14.63;;;;;;;9.96;80.67;102119.19;6022266;19;20292;-73
2023/04/29 06:39:22;;;;;;;31.45;15.00;;;;;;;10.14;80.35;102125.88;6046407;19;20006;-72
2023/04/29 06:41:30;;;;;;;31.58;15.57;;;;;;;10.59;77.76;102130.31;6049846;19;20775;-72
2023/04/29 06:43:35;;;;;;;31.60;15.02;;;;;;;11.15;76.07;102134.38;6045236;19;20010;-71
2023/04/29 06:45:41;;;;;;;32.25;15.02;;;;;;;11.53;75.91;102142.28;6041780;19;20014;-71
2023/04/29 06:47:46;;;;;;;28.38;13.75;;;;;;;11.28;74.17;102142.88;6039505;19;20015;-67
2023/04/29 06:49:52;;;;;;;30.83;14.80;;;;;;;11.71;72.49;102146.25;6043903;19;20288;-69
2023/04/29 06:51:58;;;;;;;28.45;13.80;;;;;;;12.11;71.71;102150.56;6042981;19;20734;-67
2023/04/29 06:54:03;;;;;;;29.85;13.75;;;;;;;12.32;70.99;102144.72;6040118;19;20430;-68
2023/04/29 06:56:12;;;;;;;28.15;13.35;;;;;;;12.22;70.69;102144.13;6042961;19;20014;-67
2023/04/29 06:58:27;;;;;;;27.80;13.88;;;;;;;12.65;69.83;102156.13;6013589;19;20171;-69
2023/04/29 07:00:32;;;;;;;25.73;12.95;;;;;;;12.70;68.31;102159.50;6040352;19;20019;-67
2023/04/29 07:02:38;;;;;;;26.00;13.60;;;;;;;12.57;69.44;102166.00;6038603;19;20228;-67
2023/04/29 07:04:43;;;;;;;30.17;14.77;;;;;;;12.00;71.20;102171.91;6041092;19;20332;-69
2023/04/29 07:06:49;;;;;;;29.73;15.07;;;;;;;12.66;69.11;102176.28;6051262;19;20299;-67
2023/04/29 07:08:55;;;;;;;28.65;13.25;;;;;;;12.91;67.99;102175.63;6039650;19;20194;-67
2023/04/29 07:11:00;;;;;;;26.50;13.02;;;;;;;12.93;69.45;102179.94;6045017;19;20084;-67
2023/04/29 07:13:05;;;;;;;28.98;14.30;;;;;;;13.09;68.07;102182.13;6042825;19;20320;-67
2023/04/29 07:15:13;;;;;;;33.10;13.98;;;;;;;13.11;68.33;102186.47;6045837;19;20506;-68
2023/04/29 07:17:19;;;;;;;27.50;13.10;;;;;;;12.95;67.39;102182.53;6043658;19;20664;-67
2023/04/29 07:19:24;;;;;;;31.58;13.30;;;;;;;12.97;67.35;102191.25;6042984;19;20301;-67
2023/04/29 07:21:30;;;;;;;28.25;12.60;;;;;;;12.94;65.86;102189.56;6043591;19;20630;-68
2023/04/29 07:23:35;;;;;;;28.20;13.07;;;;;;;13.32;66.35;102192.03;6041823;19;20309;-68
2023/04/29 07:25:40;;;;;;;27.45;12.90;;;;;;;13.14;65.15;102196.94;6039936;19;20002;-68
2023/04/29 07:27:45;;;;;;;25.85;12.25;;;;;;;12.56;65.88;102193.31;6041792;19;20381;-68
2023/04/29 07:29:53;;;;;;;20.52;11.43;;;;;;;13.22;65.60;102191.41;6042424;19;20360;-68
2023/04/29 07:32:00;;;;;;;25.95;11.77;;;;;;;12.68;67.33;102198.22;6037904;19;20363;-68
2023/04/29 07:34:05;;;;;;;27.65;11.93;;;;;;;13.16;66.54;102203.03;6042350;19;20217;-68
2023/04/29 07:36:14;;;;;;;24.95;11.10;;;;;;;13.87;64.00;102203.50;6043305;19;20304;-68
2023/04/29 07:38:20;;;;;;;22.88;10.63;;;;;;;14.35;63.32;102201.91;6038698;19;20238;-69
2023/04/29 07:40:25;;;;;;;21.75;10.60;;;;;;;14.48;62.82;102204.09;6041664;19;20190;-69
2023/04/29 07:42:30;;;;;;;20.38;9.98;;;;;;;13.84;63.01;102204.47;6041895;19;20174;-67
2023/04/29 07:44:35;;;;;;;21.35;10.93;;;;;;;13.10;65.31;102205.81;6042139;19;20007;-67
2023/04/29 07:46:40;;;;;;;25.25;11.00;;;;;;;13.26;64.07;102200.09;6041430;19;20242;-67
2023/04/29 07:48:48;;;;;;;26.15;11.10;;;;;;;13.18;65.49;102195.03;6048651;19;20313;-68
2023/04/29 07:50:53;;;;;;;27.52;10.98;;;;;;;13.93;64.12;102205.97;6048862;19;20432;-67
2023/04/29 07:53:00;;;;;;;23.98;10.52;;;;;;;14.83;62.27;102204.63;6044796;19;20292;-68
2023/04/29 07:55:07;;;;;;;24.45;10.85;;;;;;;14.16;62.08;102209.59;6045248;19;20329;-68
2023/04/29 07:57:12;;;;;;;22.08;10.88;;;;;;;13.09;65.19;102209.38;6043864;19;20293;-69
2023/04/29 07:59:20;;;;;;;23.90;11.73;;;;;;;12.87;67.48;102210.91;6046824;19;20600;-70
2023/04/29 08:01:25;;;;;;;27.48;11.80;;;;;;;12.15;68.62;102210.19;6045327;19;20215;-69
2023/04/29 08:03:30;;;;;;;26.55;12.27;;;;;;;13.11;67.66;102204.94;6040214;19;20329;-69
2023/04/29 08:05:38;;;;;;;23.65;10.23;;;;;;;13.29;66.76;102207.97;6045190;19;20466;-69
2023/04/29 08:07:43;;;;;;;23.42;10.07;;;;;;;13.91;65.52;102207.78;6043941;19;20296;-69
2023/04/29 08:09:48;;;;;;;23.27;10.73;;;;;;;13.75;66.22;102202.13;6042915;19;20503;-70
2023/04/29 08:11:53;;;;;;;26.77;11.82;;;;;;;13.21;67.49;102213.44;6039764;19;20237;-69
2023/04/29 08:13:59;;;;;;;21.98;11.50;;;;;;;13.17;68.11;102217.09;6035502;19;20546;-70
2023/04/29 08:16:04;;;;;;;20.85;10.60;;;;;;;13.18;67.64;102214.38;6038262;19;20293;-71
2023/04/29 08:18:09;;;;;;;20.88;10.45;;;;;;;13.07;67.00;102213.84;6039447;19;20007;-70
2023/04/29 08:20:15;;;;;;;25.60;12.32;;;;;;;12.92;67.00;102214.28;6039960;19;20511;-71
2023/04/29 08:22:22;;;;;;;23.27;11.77;;;;;;;13.21;67.41;102220.50;6037144;19;20556;-71
2023/04/29 08:24:28;;;;;;;22.48;12.00;;;;;;;13.18;66.35;102222.31;6042446;19;20377;-70
2023/04/29 08:26:33;;;;;;;24.10;11.32;;;;;;;13.18;66.92;102224.09;6036663;19;20332;-69
2023/04/29 08:28:42;;;;;;;23.98;11.15;;;;;;;12.30;68.13;102236.16;6040995;19;20200;-69
2023/04/29 08:30:49;;;;;;;22.73;11.38;;;;;;;12.55;68.94;102236.38;6041279;19;20299;-72
2023/04/29 08:32:54;;;;;;;24.30;11.73;;;;;;;12.34;68.69;102242.22;6036367;19;20476;-70
2023/04/29 08:35:00;;;;;;;23.95;11.82;;;;;;;12.51;68.33;102235.59;6031751;19;20356;-70
2023/04/29 08:37:06;;;;;;;19.17;10.70;;;;;;;12.17;69.30;102234.75;6035371;19;20409;-69
2023/04/29 08:39:14;;;;;;;24.48;12.05;;;;;;;12.33;68.92;102245.78;6038593;19;20440;-68
2023/04/29 08:41:24;;;;;;;22.98;11.32;;;;;;;12.38;68.62;102241.25;6038646;19;20325;-70
2023/04/29 08:43:33;;;;;;;22.83;11.88;;;;;;;12.79;68.02;102241.91;6034884;19;19998;-71
2023/04/29 08:45:39;;;;;;;23.95;12.30;;;;;;;13.32;65.72;102239.53;6028482;19;20282;-69
2023/04/29 08:47:45;;;;;;;22.73;11.27;;;;;;;13.43;65.05;102242.75;6033075;19;20468;-69
2023/04/29 08:49:53;;;;;;;23.27;11.68;;;;;;;13.29;66.18;102247.56;6039251;19;20682;-69
2023/04/29 08:51:58;;;;;;;26.67;12.00;;;;;;;13.60;63.17;102245.72;6035035;19;20302;-70
2023/04/29 08:54:03;;;;;;;27.08;12.90;;;;;;;12.98;65.05;102245.78;6038568;19;20011;-69
2023/04/29 08:56:19;;;;;;;20.52;11.63;;;;;;;12.66;66.75;102244.00;6032334;19;20006;-68
2023/04/29 08:58:31;;;;;;;20.85;11.45;;;;;;;12.80;67.91;102246.28;6025256;19;20289;-69
2023/04/29 09:00:37;;;;;;;28.25;11.75;;;;;;;12.56;68.11;102253.94;6040008;19;20800;-69
2023/04/29 09:02:47;;;;;;;25.60;11.32;;;;;;;12.88;67.00;102244.31;6035065;19;20619;-68
2023/04/29 09:05:02;;;;;;;23.27;12.40;;;;;;;13.75;64.01;102244.41;6040680;19;20553;-68
2023/04/29 09:07:09;;;;;;;22.63;11.23;;;;;;;12.97;66.57;102249.31;6041556;19;20524;-71
2023/04/29 09:09:15;;;;;;;18.98;11.65;;;;;;;13.52;65.68;102247.75;6046495;19;20523;-69
2023/04/29 09:11:28;;;;;;;22.42;11.02;;;;;;;14.42;62.69;102248.38;6041883;19;20571;-69
2023/04/29 09:13:34;;;;;;;22.10;10.80;;;;;;;15.09;60.05;102242.53;6037961;19;20652;-69
2023/04/29 09:15:41;;;;;;;21.85;10.48;;;;;;;15.70;59.82;102242.00;6042752;19;20031;-69
2023/04/29 09:17:48;;;;;;;21.98;11.43;;;;;;;15.30;57.71;102249.66;6032850;19;20558;-70
2023/04/29 09:19:55;;;;;;;22.88;11.55;;;;;;;15.21;58.98;102246.50;6041853;19;20051;-68
2023/04/29 09:22:01;;;;;;;20.38;10.45;;;;;;;15.77;57.93;102246.09;6038835;19;20745;-68
2023/04/29 09:24:07;;;;;;;18.63;9.43;;;;;;;16.41;56.90;102248.78;6040659;19;20826;-70
2023/04/29 09:26:12;;;;;;;20.65;10.07;;;;;;;16.84;54.62;102241.63;6037176;19;20097;-70
2023/04/29 09:28:19;;;;;;;21.42;10.80;;;;;;;15.82;54.70;102252.09;6037644;19;20357;-70
2023/04/29 09:30:25;;;;;;;22.48;10.65;;;;;;;15.73;55.81;102250.69;6035601;19;20058;-68
2023/04/29 09:32:30;;;;;;;25.83;11.35;;;;;;;15.91;55.66;102264.13;6044799;19;20309;-68
2023/04/29 09:34:39;;;;;;;18.80;9.82;;;;;;;15.18;58.05;102260.72;6044344;19;20002;-68
2023/04/29 09:36:46;;;;;;;19.42;10.52;;;;;;;14.87;58.22;102253.88;6042516;19;20018;-68
2023/04/29 09:38:56;;;;;;;20.45;10.20;;;;;;;15.31;56.30;102258.47;6041406;19;20043;-68